BKPR/PRN METAR and TAF weather

Enter ICAO airport designator
Station Type Date Time Source
BKPR METAR 2021/02/28 03:30 UTC NOAA

BKPR 280330Z VRB01KT CAVOK 01/M04 Q1030 NOSIG RMK 17010095


Station Type Date Time Source
BKPR Decoded METAR 2021/02/28 03:30 UTC NOAA

Station name not available
Feb 27, 2021 - 10:30 PM EST / 2021.02.28 0330 UTC
Wind: Variable at 1 MPH (1 KT):0
Visibility: greater than 7 mile(s):0
Temperature: 33 F (1 C)
Dew Point: 24 F (-4 C)
Relative Humidity: 69%
Pressure (altimeter): 30.42 in. Hg (1030 hPa)
ob: BKPR 280330Z VRB01KT CAVOK 01/M04 Q1030 NOSIG RMK 17010095
cycle: 3

Station Type Date Time Source
BKPR TAF 2021/02/27 18:30 UTC NOAA

TAF BKPR 271730Z 2718/2818 01008KT 9999 BKN040
TEMPO 2718/2722 01018KT

Example: see airport list